Time;durP1;ratioP1;P1;durP2;ratioP2;P2;SDS_P1;SDS_P2;PMS_P1;PMS_P2;Temp;Humidity;BMP_temperature;BMP_pressure;BME280_temperature;BME280_humidity;BME280_pressure;Samples;Min_cycle;Max_cycle;Signal;HPM_P1;HPM_P2
2022/10/03 00:00:38;;;;;;;;;;;;;;;11.64;100.00;98087.05;1615086;86;22050;-84
2022/10/03 00:03:13;;;;;;;;;;;;;;;11.64;100.00;98080.48;1618533;86;21486;-84
2022/10/03 00:05:41;;;;;;;;;;;;;;;11.65;100.00;98086.57;1623143;85;25222;-84
2022/10/03 00:08:16;;;;;;;;;;;;;;;11.65;100.00;98082.64;1620706;86;20261;-84
2022/10/03 00:10:49;;;;;;;;;;;;;;;11.66;100.00;98085.62;1623276;87;24870;-84
2022/10/03 00:13:24;;;;;;;;;;;;;;;11.64;100.00;98085.73;1628550;86;22127;-84
2022/10/03 00:16:01;;;;;;;;;;;;;;;11.61;100.00;98085.16;1626436;87;26023;-84
2022/10/03 00:18:30;;;;;;;;;;;;;;;11.56;100.00;98082.07;1616009;87;24419;-84
2022/10/03 00:20:58;;;;;;;;;;;;;;;11.53;100.00;98083.13;1623665;87;20369;-84
2022/10/03 00:23:42;;;;;;;;;;;;;;;11.52;100.00;98087.17;1620502;86;24947;-84
2022/10/03 00:26:26;;;;;;;;;;;;;;;11.51;100.00;98084.22;1618353;87;22061;-84
2022/10/03 00:28:57;;;;;;;;;;;;;;;11.48;100.00;98078.73;1622038;87;26018;-84
2022/10/03 00:31:24;;;;;;;;;;;;;;;11.46;100.00;98083.72;1621462;86;24487;-84
2022/10/03 00:34:05;;;;;;;;;;;;;;;11.45;100.00;98088.16;1624054;86;20183;-84
2022/10/03 00:36:38;;;;;;;;;;;;;;;11.44;100.00;98080.41;1631136;84;25548;-84
2022/10/03 00:39:09;;;;;;;;;;;;;;;11.41;100.00;98077.55;1647104;84;22079;-84
2022/10/03 00:41:36;;;;;;;;;;;;;;;11.40;100.00;98078.99;1649916;84;26091;-84
2022/10/03 00:44:04;;;;;;;;;;;;;;;11.38;100.00;98079.58;1651357;85;24390;-84
2022/10/03 00:46:36;;;;;;;;;;;;;;;11.38;100.00;98073.87;1647458;84;20226;-85
2022/10/03 00:49:07;;;;;;;;;;;;;;;11.38;100.00;98074.34;1649407;85;24906;-84
2022/10/03 00:51:44;;;;;;;;;;;;;;;11.37;100.00;98074.81;1623861;84;35331;-84
2022/10/03 00:54:18;;;;;;;;;;;;;;;11.37;100.00;98070.89;1647864;85;26785;-84
2022/10/03 00:56:55;;;;;;;;;;;;;;;11.37;100.00;98060.88;1652188;85;24428;-84
2022/10/03 00:59:41;;;;;;;;;;;;;;;11.35;100.00;98054.95;1655155;85;20223;-84
2022/10/03 01:02:18;;;;;;;;;;;;;;;11.35;100.00;98060.99;1646995;85;25094;-85
2022/10/03 01:04:45;;;;;;;;;;;;;;;11.35;100.00;98062.81;1646675;85;22254;-85
2022/10/03 01:07:16;;;;;;;;;;;;;;;11.39;100.00;98070.30;1653248;85;26165;-84
2022/10/03 01:09:47;;;;;;;;;;;;;;;11.38;100.00;98064.70;1651181;84;24532;-85
2022/10/03 01:12:20;;;;;;;;;;;;;;;11.38;100.00;98057.31;1644865;85;20837;-84
2022/10/03 01:14:54;;;;;;;;;;;;;;;11.38;100.00;98053.38;1650724;84;24888;-84
2022/10/03 01:17:28;;;;;;;;;;;;;;;11.38;100.00;98056.84;1652119;84;21936;-85
2022/10/03 01:20:07;;;;;;;;;;;;;;;11.39;100.00;98078.16;1655342;84;26010;-85
2022/10/03 01:22:39;;;;;;;;;;;;;;;11.36;100.00;98074.45;1655264;84;25215;-85
2022/10/03 01:25:15;;;;;;;;;;;;;;;11.27;100.00;98069.47;1645060;85;20246;-85
2022/10/03 01:30:49;;;;;;;;;;;;;;;11.06;100.00;98076.86;1647304;84;22811;-84
2022/10/03 01:33:22;;;;;;;;;;;;;;;11.03;100.00;98072.68;1648168;84;26772;-84
2022/10/03 01:35:58;;;;;;;;;;;;;;;11.03;100.00;98072.68;1645884;85;25204;-85
2022/10/03 01:38:33;;;;;;;;;;;;;;;11.05;100.00;98070.78;1660496;84;20234;-84
2022/10/03 01:41:10;;;;;;;;;;;;;;;11.06;100.00;98075.08;1658341;84;24752;-84
2022/10/03 01:43:43;;;;;;;;;;;;;;;11.03;100.00;98073.98;1659373;84;22012;-85
2022/10/03 01:46:18;;;;;;;;;;;;;;;11.02;100.00;98070.20;1663322;84;26810;-85
2022/10/03 01:48:46;;;;;;;;;;;;;;;11.00;100.00;98072.93;1662259;84;25286;-85
2022/10/03 01:51:20;;;;;;;;;;;;;;;10.99;100.00;98079.11;1661407;84;20195;-85
2022/10/03 01:53:48;;;;;;;;;;;;;;;10.99;100.00;98076.50;1661931;83;24922;-85
2022/10/03 01:56:33;;;;;;;;;;;;;;;10.98;100.00;98074.82;1670345;83;21960;-85
2022/10/03 01:59:05;;;;;;;;;;;;;;;10.96;100.00;98080.67;1659933;84;26043;-85
2022/10/03 02:01:46;;;;;;;;;;;;;;;10.93;100.00;98083.51;1661561;84;24489;-85
2022/10/03 02:04:31;;;;;;;;;;;;;;;10.88;100.00;98078.63;1661096;84;20285;-84
2022/10/03 02:07:01;;;;;;;;;;;;;;;10.85;100.00;98085.42;1661724;84;24921;-84
2022/10/03 02:09:48;;;;;;;;;;;;;;;10.84;100.00;98087.68;1662213;84;22823;-84
2022/10/03 02:12:29;;;;;;;;;;;;;;;10.85;100.00;98088.52;1660291;84;25439;-84
2022/10/03 02:15:08;;;;;;;;;;;;;;;10.84;100.00;98090.30;1663970;84;24591;-84
2022/10/03 02:17:44;;;;;;;;;;;;;;;10.83;100.00;98087.31;1661661;84;20290;-84
2022/10/03 02:20:22;;;;;;;;;;;;;;;10.83;100.00;98085.17;1668144;84;24816;-84
2022/10/03 02:22:50;;;;;;;;;;;;;;;10.84;100.00;98081.13;1662291;84;21803;-84
2022/10/03 02:25:21;;;;;;;;;;;;;;;10.87;100.00;98085.28;1661461;84;26656;-84
2022/10/03 02:27:51;;;;;;;;;;;;;;;10.90;100.00;98087.21;1664740;84;24401;-84
2022/10/03 02:30:27;;;;;;;;;;;;;;;10.90;100.00;98082.45;1607238;84;20440;-85
2022/10/03 02:32:53;;;;;;;;;;;;;;;10.90;100.00;98078.52;1660733;84;24221;-84
2022/10/03 02:35:38;;;;;;;;;;;;;;;10.89;100.00;98081.61;1660169;84;22700;-84
2022/10/03 02:38:11;;;;;;;;;;;;;;;10.89;100.00;98079.47;1658459;85;26727;-84
2022/10/03 02:40:39;;;;;;;;;;;;;;;10.90;100.00;98079.83;1660005;84;24456;-84
2022/10/03 02:43:10;;;;;;;;;;;;;;;10.90;100.00;98085.06;1658523;85;20226;-84
2022/10/03 02:45:52;;;;;;;;;;;;;;;10.87;100.00;98083.50;1667528;84;24740;-84
2022/10/03 02:48:29;;;;;;;;;;;;;;;10.85;100.00;98086.73;1659991;85;22060;-84
2022/10/03 02:51:16;;;;;;;;;;;;;;;10.85;100.00;98088.52;1660113;84;26748;-84
2022/10/03 02:53:51;;;;;;;;;;;;;;;10.84;100.00;98092.08;1664455;84;24441;-85
2022/10/03 02:56:19;;;;;;;;;;;;;;;10.84;100.00;98090.77;1637225;84;20316;-85
2022/10/03 02:58:55;;;;;;;;;;;;;;;10.81;100.00;98092.29;1661538;84;24827;-84
2022/10/03 03:01:25;;;;;;;;;;;;;;;10.79;100.00;98090.28;1661829;84;22726;-85
2022/10/03 03:04:06;;;;;;;;;;;;;;;10.78;100.00;98089.92;1666307;84;26223;-85
2022/10/03 03:06:40;;;;;;;;;;;;;;;10.77;100.00;98091.70;1662184;84;24543;-86
2022/10/03 03:09:11;;;;;;;;;;;;;;;10.79;100.00;98086.36;1658262;85;20259;-85
2022/10/03 03:11:55;;;;;;;;;;;;;;;10.81;100.00;98088.37;1662720;84;24776;-85
2022/10/03 03:14:43;;;;;;;;;;;;;;;10.84;100.00;98086.84;1662600;84;22013;-85
2022/10/03 03:17:10;;;;;;;;;;;;;;;10.84;100.00;98084.22;1664142;84;25989;-85
2022/10/03 03:19:55;;;;;;;;;;;;;;;10.87;100.00;98083.97;1668923;84;24500;-86
2022/10/03 03:22:33;;;;;;;;;;;;;;;10.86;100.00;98092.77;1663653;84;20293;-86
2022/10/03 03:25:18;;;;;;;;;;;;;;;10.86;100.00;98087.53;1663589;84;24781;-86
2022/10/03 03:27:46;;;;;;;;;;;;;;;10.83;100.00;98089.09;1660559;84;22104;-85
2022/10/03 03:30:20;;;;;;;;;;;;;;;10.79;100.00;98090.28;1662809;84;26058;-86
2022/10/03 03:33:00;;;;;;;;;;;;;;;10.75;100.00;98087.05;1662130;84;24521;-85
2022/10/03 03:35:50;;;;;;;;;;;;;;;10.75;100.00;98090.97;1573528;89;20287;-86
2022/10/03 03:38:30;;;;;;;;;;;;;;;10.71;100.00;98093.47;1586519;84;25141;-86
2022/10/03 03:40:58;;;;;;;;;;;;;;;10.71;100.00;98097.40;1662409;83;22115;-85
2022/10/03 03:43:43;;;;;;;;;;;;;;;10.73;100.00;98089.44;1662749;84;26060;-84
2022/10/03 03:46:26;;;;;;;;;;;;;;;10.71;100.00;98091.33;1665902;84;24439;-85
2022/10/03 03:49:15;;;;;;;;;;;;;;;10.71;100.00;98097.40;1661119;84;20201;-85
2022/10/03 03:51:52;;;;;;;;;;;;;;;10.74;100.00;98091.95;1661074;84;24752;-85
2022/10/03 03:54:36;;;;;;;;;;;;;;;10.81;100.00;98102.29;1662426;84;22100;-85
2022/10/03 03:57:07;;;;;;;;;;;;;;;10.82;100.00;98105.74;1695016;84;25955;-84
2022/10/03 03:59:39;;;;;;;;;;;;;;;10.84;100.00;98108.62;1695599;84;25291;-84
2022/10/03 04:02:10;;;;;;;;;;;;;;;10.87;100.00;98112.30;1690786;84;20216;-84
2022/10/03 04:04:56;;;;;;;;;;;;;;;10.87;100.00;98103.14;1663744;84;24767;-85
2022/10/03 04:07:40;;;;;;;;;;;;;;;10.86;100.00;98105.39;1659447;85;21956;-85
2022/10/03 04:10:26;;;;;;;;;;;;;;;10.85;100.00;98102.44;1662077;83;26731;-84
2022/10/03 04:13:11;;;;;;;;;;;;;;;10.85;100.00;98101.60;1665407;84;24527;-84
2022/10/03 04:15:48;;;;;;;;;;;;;;;10.84;100.00;98107.31;1659389;85;20345;-84
2022/10/03 04:21:11;;;;;;;;;;;;;;;10.82;100.00;98112.28;1658518;84;22891;-84
2022/10/03 04:23:50;;;;;;;;;;;;;;;10.80;100.00;98107.66;1661914;84;26015;-85
2022/10/03 04:26:30;;;;;;;;;;;;;;;10.76;100.00;98105.73;1658153;84;24548;-84
2022/10/03 04:29:15;;;;;;;;;;;;;;;10.78;100.00;98109.08;1661998;84;20352;-84
2022/10/03 04:32:00;;;;;;;;;;;;;;;10.79;100.00;98105.52;1664632;84;21490;-85
2022/10/03 04:34:33;;;;;;;;;;;;;;;10.82;100.00;98100.52;1662551;84;21210;-84
2022/10/03 04:37:02;;;;;;;;;;;;;;;10.83;100.00;98100.88;1660938;84;25982;-85
2022/10/03 04:39:35;;;;;;;;;;;;;;;10.84;100.00;98106.47;1665368;84;25424;-84
2022/10/03 04:42:23;;;;;;;;;;;;;;;10.86;100.00;98103.24;1666234;84;20268;-84
2022/10/03 04:45:01;;;;;;;;;;;;;;;10.87;100.00;98110.16;1664397;84;25494;-85
2022/10/03 04:47:29;;;;;;;;;;;;;;;10.87;100.00;98106.23;1668142;84;22315;-85
2022/10/03 04:50:04;;;;;;;;;;;;;;;10.85;100.00;98118.14;1667997;84;25998;-85
2022/10/03 04:52:44;;;;;;;;;;;;;;;10.84;100.00;98122.18;1666641;84;24663;-85
2022/10/03 04:55:25;;;;;;;;;;;;;;;10.82;100.00;98130.61;1667809;84;20226;-85
2022/10/03 04:58:02;;;;;;;;;;;;;;;10.76;100.00;98133.22;1668441;84;24897;-85
2022/10/03 05:00:32;;;;;;;;;;;;;;;10.73;100.00;98139.17;1669077;84;22012;-84
2022/10/03 05:02:59;;;;;;;;;;;;;;;10.74;100.00;98135.61;1664052;84;25994;-85
2022/10/03 05:05:45;;;;;;;;;;;;;;;10.76;100.00;98145.00;1668566;84;24504;-85
2022/10/03 05:08:27;;;;;;;;;;;;;;;10.80;100.00;98150.85;1660732;84;20277;-85
2022/10/03 05:10:58;;;;;;;;;;;;;;;10.84;100.00;98149.67;1664669;84;24753;-85
2022/10/03 05:13:46;;;;;;;;;;;;;;;10.85;100.00;98153.95;1666691;83;22091;-85
2022/10/03 05:16:36;;;;;;;;;;;;;;;10.86;100.00;98154.30;1665185;84;26012;-85
2022/10/03 05:19:04;;;;;;;;;;;;;;;10.85;100.00;98156.58;1666836;84;24471;-86
2022/10/03 05:21:36;;;;;;;;;;;;;;;10.85;100.00;98157.88;1669168;84;20323;-85
2022/10/03 05:24:05;;;;;;;;;;;;;;;10.86;100.00;98152.98;1670003;84;25411;-85
2022/10/03 05:26:34;;;;;;;;;;;;;;;10.89;100.00;98150.16;1663805;84;22754;-85
2022/10/03 05:29:05;;;;;;;;;;;;;;;10.94;100.00;98157.66;1670824;84;26047;-85
2022/10/03 05:31:32;;;;;;;;;;;;;;;10.99;100.00;98148.97;1664765;84;24778;-86
2022/10/03 05:34:00;;;;;;;;;;;;;;;11.00;100.00;98158.03;1666981;84;20291;-85
2022/10/03 05:36:31;;;;;;;;;;;;;;;11.03;100.00;98156.47;1666422;84;24857;-85
2022/10/03 05:41:56;;;;;;;;;;;;;;;11.05;100.00;98164.22;1648693;84;26047;-84
2022/10/03 05:44:29;;;;;;;;;;;;;;;11.05;100.00;98158.98;1569569;89;24535;-85
2022/10/03 05:50:00;;;;;;;;;;;;;;;11.03;100.00;98163.02;1651642;85;24971;-84
2022/10/03 05:52:31;;;;;;;;;;;;;;;10.98;100.00;98167.77;1650467;84;22432;-85
2022/10/03 05:55:19;;;;;;;;;;;;;;;10.94;100.00;98156.34;1650228;86;25872;-84
2022/10/03 05:57:55;;;;;;;;;;;;;;;10.94;100.00;98168.97;1650487;85;24467;-84
2022/10/03 06:00:22;;;;;;;;;;;;;;;10.98;100.00;98170.39;1650362;85;20281;-84
2022/10/03 06:03:09;;;;;;;;;;;;;;;11.03;100.00;98169.56;1654629;84;25645;-84
2022/10/03 06:05:52;;;;;;;;;;;;;;;11.05;100.00;98175.53;1651298;85;22067;-84
2022/10/03 06:08:23;;;;;;;;;;;;;;;11.10;100.00;98181.25;1652056;84;26865;-84
2022/10/03 06:10:54;;;;;;;;;;;;;;;11.13;100.00;98179.70;1652240;84;24520;-85
2022/10/03 06:13:38;;;;;;;;;;;;;;;11.15;100.00;98179.11;1651382;83;20239;-84
2022/10/03 06:16:09;;;;;;;;;;;;;;;11.19;100.00;98187.09;1653801;84;25605;-85
2022/10/03 06:18:43;;;;;;;;;;;;;;;11.22;100.00;98189.49;1657326;84;21989;-85
2022/10/03 06:21:20;;;;;;;;;;;;;;;11.24;100.00;98182.80;1650794;85;27202;-85
2022/10/03 06:23:53;;;;;;;;;;;;;;;11.26;100.00;98183.06;1597502;88;24423;-84
2022/10/03 06:26:21;;;;;;;;;;;;;;;11.31;100.00;98184.84;1653047;84;20233;-85
2022/10/03 06:28:50;;;;;;;;;;;;;;;11.34;100.00;98182.48;1659317;84;24765;-85
2022/10/03 06:31:27;;;;;;;;;;;;;;;11.39;100.00;98186.05;1660832;83;21965;-85
2022/10/03 06:34:11;;;;;;;;;;;;;;;11.44;100.00;98189.98;1653936;85;26290;-85
2022/10/03 06:36:42;;;;;;;;;;;;;;;11.47;100.00;98187.59;1656386;84;24505;-85
2022/10/03 06:39:26;;;;;;;;;;;;;;;11.50;100.00;98188.21;1633444;85;20265;-85
2022/10/03 06:42:11;;;;;;;;;;;;;;;11.53;100.00;98191.89;1588975;87;24787;-84
2022/10/03 06:44:55;;;;;;;;;;;;;;;11.54;100.00;98187.01;1623897;86;22162;-85
2022/10/03 06:47:27;;;;;;;;;;;;;;;11.55;100.00;98191.78;1589396;87;26851;-85
2022/10/03 06:50:17;;;;;;;;;;;;;;;11.55;100.00;98193.92;1625398;86;24614;-85
2022/10/03 06:52:49;;;;;;;;;;;;;;;11.57;100.00;98196.41;1624309;86;20288;-85
2022/10/03 06:55:32;;;;;;;;;;;;;;;11.57;100.00;98205.10;1627374;86;25401;-85
2022/10/03 06:58:19;;;;;;;;;;;;;;;11.56;100.00;98207.39;1619785;86;22066;-85
2022/10/03 07:00:55;;;;;;;;;;;;;;;11.55;100.00;98209.65;1631526;86;25995;-85
2022/10/03 07:03:30;;;;;;;;;;;;;;;11.56;100.00;98214.42;1620555;86;24518;-85
2022/10/03 07:05:57;;;;;;;;;;;;;;;11.57;100.00;98212.97;1621984;86;20627;-85
2022/10/03 07:08:31;;;;;;;;;;;;;;;11.56;100.00;98207.87;1630771;85;24758;-85
2022/10/03 07:11:01;;;;;;;;;;;;;;;11.51;100.00;98217.37;1625914;85;22168;-84
2022/10/03 07:13:38;;;;;;;;;;;;;;;11.47;100.00;98212.48;1617305;86;26028;-85
2022/10/03 07:16:34;;;;;;;;;;;;;;;11.44;100.00;98210.11;1662528;84;20748;-84
2022/10/03 07:19:01;;;;;;;;;;;;;;;11.50;100.00;98215.73;1660470;84;20480;-84
2022/10/03 07:21:32;;;;;;;;;;;;;;;11.50;100.00;98207.86;1663493;84;25453;-84
2022/10/03 07:24:04;;;;;;;;;;;;;;;11.50;100.00;98203.09;1663442;84;22842;-85
2022/10/03 07:26:34;;;;;;;;;;;;;;;11.51;100.00;98196.41;1660553;84;26068;-85
2022/10/03 07:29:05;;;;;;;;;;;;;;;11.54;100.00;98200.59;1682856;83;24511;-84
2022/10/03 07:31:33;;;;;;;;;;;;;;;11.64;100.00;98194.52;1695087;83;20263;-85
2022/10/03 07:34:18;;;;;;;;;;;;;;;11.73;100.00;98195.59;1698571;82;24768;-85
2022/10/03 07:40:07;;;;;;;;;;;;;;;11.95;100.00;98200.83;1693505;83;26061;-85
2022/10/03 07:42:41;;;;;;;;;;;;;;;12.00;100.00;98196.55;1686161;83;24439;-85
2022/10/03 07:45:29;;;;;;;;;;;;;;;12.04;100.00;98190.10;1693300;84;20282;-85
2022/10/03 07:48:14;;;;;;;;;;;;;;;12.07;100.00;98198.55;1655826;84;24919;-85
2022/10/03 07:51:01;;;;;;;;;;;;;;;12.11;100.00;98194.72;1665224;84;22169;-85
2022/10/03 07:53:29;;;;;;;;;;;;;;;12.13;100.00;98186.73;1661188;84;26070;-85
2022/10/03 07:55:58;;;;;;;;;;;;;;;12.15;100.00;98194.85;1686180;84;24482;-84
2022/10/03 07:58:38;;;;;;;;;;;;;;;12.19;100.00;98191.97;1690034;83;20306;-85
2022/10/03 08:01:11;;;;;;;;;;;;;;;12.20;100.00;98203.66;1665954;84;24997;-85
2022/10/03 08:03:55;;;;;;;;;;;;;;;12.19;100.00;98209.02;1667672;84;21952;-85
2022/10/03 08:06:25;;;;;;;;;;;;;;;12.10;100.00;98226.34;1668461;84;26079;-84
2022/10/03 08:08:56;;;;;;;;;;;;;;;11.95;100.00;98230.14;1670663;85;24508;-84
2022/10/03 08:11:29;;;;;;;;;;;;;;;11.82;100.00;98223.73;1665031;84;20413;-85
2022/10/03 08:14:17;;;;;;;;;;;;;;;11.73;100.00;98225.27;1652765;84;24914;-84
2022/10/03 08:16:53;;;;;;;;;;;;;;;11.63;100.00;98226.91;1670470;85;22012;-84
2022/10/03 08:19:24;;;;;;;;;;;;;;;11.55;100.00;98232.41;1669878;84;26577;-85
2022/10/03 08:22:05;;;;;;;;;;;;;;;11.56;100.00;98231.45;1665996;84;24588;-85
2022/10/03 08:24:49;;;;;;;;;;;;;;;11.57;100.00;98233.09;1669519;84;20388;-85
2022/10/03 08:27:30;;;;;;;;;;;;;;;11.60;100.00;98228.95;1673178;84;24744;-84
2022/10/03 08:29:57;;;;;;;;;;;;;;;11.69;100.00;98235.61;1669059;84;21357;-85
2022/10/03 08:32:42;;;;;;;;;;;;;;;11.74;100.00;98228.73;1669629;85;26060;-85
2022/10/03 08:35:29;;;;;;;;;;;;;;;11.79;100.00;98226.58;1667704;85;24422;-85
2022/10/03 08:38:04;;;;;;;;;;;;;;;11.77;100.00;98235.06;1669947;84;20169;-85
2022/10/03 08:40:41;;;;;;;;;;;;;;;11.71;100.00;98222.40;1671664;85;24835;-85
2022/10/03 08:43:09;;;;;;;;;;;;;;;11.63;100.00;98216.42;1670598;84;21956;-85
2022/10/03 08:45:37;;;;;;;;;;;;;;;11.59;100.00;98212.86;1668719;84;26158;-85
2022/10/03 08:48:23;;;;;;;;;;;;;;;11.65;100.00;98204.52;1667134;85;24597;-85
2022/10/03 08:50:54;;;;;;;;;;;;;;;11.71;100.00;98207.50;1670901;84;20244;-85
2022/10/03 08:53:26;;;;;;;;;;;;;;;11.80;100.00;98207.28;1686447;83;24830;-85
2022/10/03 08:56:00;;;;;;;;;;;;;;;11.83;100.00;98212.30;1693952;83;22050;-85
2022/10/03 08:58:30;;;;;;;;;;;;;;;11.89;100.00;98210.98;1690543;83;25998;-85
2022/10/03 09:01:19;;;;;;;;;;;;;;;11.92;100.00;98214.19;1659119;85;25113;-85
2022/10/03 09:03:59;;;;;;;;;;;;;;;11.93;100.00;98221.58;1690375;83;21592;-84
2022/10/03 09:06:44;;;;;;;;;;;;;;;11.93;100.00;98229.45;1695404;83;25000;-85
2022/10/03 09:09:11;;;;;;;;;;;;;;;11.89;100.00;98228.03;1666898;84;21956;-84
2022/10/03 09:11:45;;;;;;;;;;;;;;;11.79;100.00;98218.72;1665841;84;26852;-85
2022/10/03 09:14:16;;;;;;;;;;;;;;;11.76;100.00;98231.24;1676746;82;24544;-85
2022/10/03 09:16:55;;;;;;;;;;;;;;;11.74;100.00;98240.05;1681453;83;20250;-85
2022/10/03 09:19:40;;;;;;;;;;;;;;;11.72;100.00;98234.56;1699137;83;20716;-85
2022/10/03 09:22:14;;;;;;;;;;;;;;;11.77;100.00;98231.13;1658387;83;21980;-85
2022/10/03 09:24:42;;;;;;;;;;;;;;;11.87;100.00;98222.06;1663111;84;26127;-85
2022/10/03 09:27:13;;;;;;;;;;;;;;;11.90;100.00;98225.74;1685961;83;24408;-85
2022/10/03 09:30:00;;;;;;;;;;;;;;;11.94;100.00;98215.39;1685720;85;20325;-85
2022/10/03 09:32:30;;;;;;;;;;;;;;;12.03;100.00;98213.34;1687278;85;24847;-85
2022/10/03 09:34:58;;;;;;;;;;;;;;;12.14;100.00;98222.03;1684559;83;22088;-85
2022/10/03 09:37:44;;;;;;;;;;;;;;;12.12;100.00;98230.48;1684302;84;21605;-85
2022/10/03 09:40:29;;;;;;;;;;;;;;;12.14;100.00;98237.77;1692405;83;24543;-85
2022/10/03 09:43:02;;;;;;;;;;;;;;;12.06;100.00;98228.34;1673032;84;20309;-85
2022/10/03 09:45:33;;;;;;;;;;;;;;;12.04;100.00;98242.55;1695128;83;24679;-85
2022/10/03 09:48:13;;;;;;;;;;;;;;;12.01;100.00;98241.00;1695072;83;22016;-84
2022/10/03 09:50:41;;;;;;;;;;;;;;;11.95;100.00;98232.30;1650238;85;26018;-85
2022/10/03 09:53:14;;;;;;;;;;;;;;;11.93;100.00;98234.22;1684851;83;24622;-85
2022/10/03 09:56:00;;;;;;;;;;;;;;;11.90;100.00;98235.75;1683194;83;20327;-84
2022/10/03 09:58:40;;;;;;;;;;;;;;;11.91;100.00;98228.25;1675788;83;24934;-84
2022/10/03 10:01:08;;;;;;;;;;;;;;;11.97;100.00;98238.27;1678440;83;21464;-85
2022/10/03 10:03:42;;;;;;;;;;;;;;;11.90;100.00;98235.75;1673474;84;26083;-85
2022/10/03 10:06:26;;;;;;;;;;;;;;;11.85;100.00;98233.13;1676304;83;25149;-85
2022/10/03 10:08:57;;;;;;;;;;;;;;;11.80;100.00;98234.81;1674548;84;20304;-85
2022/10/03 10:11:25;;;;;;;;;;;;;;;11.72;100.00;98244.57;1677841;83;25511;-85
2022/10/03 10:14:09;;;;;;;;;;;;;;;11.72;100.00;98245.88;1674892;84;21936;-85
2022/10/03 10:16:56;;;;;;;;;;;;;;;11.71;100.00;98243.38;1673799;83;26767;-85
2022/10/03 10:19:36;;;;;;;;;;;;;;;11.72;100.00;98227.53;1671107;84;25299;-84
2022/10/03 10:22:21;;;;;;;;;;;;;;;11.77;100.00;98229.82;1669264;83;20292;-85
2022/10/03 10:25:05;;;;;;;;;;;;;;;11.82;100.00;98221.59;1670814;83;24732;-85
2022/10/03 10:27:40;;;;;;;;;;;;;;;11.84;100.00;98228.36;1672127;83;22091;-85
2022/10/03 10:30:20;;;;;;;;;;;;;;;11.84;100.00;98227.05;1670090;83;26021;-85
2022/10/03 10:32:48;;;;;;;;;;;;;;;11.81;100.00;98233.86;1671902;83;25332;-85
2022/10/03 10:35:32;;;;;;;;;;;;;;;11.69;100.00;98240.02;1676011;83;20296;-85
2022/10/03 10:38:01;;;;;;;;;;;;;;;11.62;100.00;98239.66;1673318;83;24765;-85
2022/10/03 10:40:35;;;;;;;;;;;;;;;11.57;100.00;98240.96;1673437;83;22011;-85
2022/10/03 10:43:20;;;;;;;;;;;;;;;11.62;100.00;98238.34;1673408;83;25985;-85
2022/10/03 10:46:04;;;;;;;;;;;;;;;11.76;100.00;98241.25;1674915;83;25265;-85
2022/10/03 10:48:48;;;;;;;;;;;;;;;11.82;100.00;98232.92;1671355;83;20224;-85
2022/10/03 10:51:22;;;;;;;;;;;;;;;11.91;100.00;98237.91;1675404;83;25680;-85
2022/10/03 10:54:08;;;;;;;;;;;;;;;11.86;100.00;98238.74;1674782;83;22014;-85
2022/10/03 10:56:41;;;;;;;;;;;;;;;11.78;100.00;98239.84;1678087;83;26004;-85
2022/10/03 10:59:08;;;;;;;;;;;;;;;11.81;100.00;98240.42;1675438;83;23797;-85
2022/10/03 11:01:36;;;;;;;;;;;;;;;11.80;100.00;98235.28;1698280;82;20255;-85
2022/10/03 11:04:24;;;;;;;;;;;;;;;11.79;100.00;98237.55;1670336;83;24990;-85
2022/10/03 11:06:56;;;;;;;;;;;;;;;11.80;100.00;98245.77;1656996;85;22070;-85
2022/10/03 11:09:40;;;;;;;;;;;;;;;11.82;100.00;98234.70;1687914;83;26141;-85
2022/10/03 11:12:25;;;;;;;;;;;;;;;11.83;100.00;98247.70;1686575;83;24579;-85
2022/10/03 11:15:09;;;;;;;;;;;;;;;11.88;100.00;98246.02;1695128;83;20304;-85
2022/10/03 11:17:37;;;;;;;;;;;;;;;11.93;100.00;98244.72;1684614;83;25030;-85
2022/10/03 11:20:22;;;;;;;;;;;;;;;11.91;100.00;98246.61;1680387;84;21989;-85
2022/10/03 11:23:02;;;;;;;;;;;;;;;11.89;100.00;98255.06;1684647;84;26833;-85
2022/10/03 11:25:33;;;;;;;;;;;;;;;11.92;100.00;98246.14;1680438;84;24410;-85
2022/10/03 11:28:17;;;;;;;;;;;;;;;11.95;100.00;98234.92;1687045;83;20565;-85
2022/10/03 11:30:48;;;;;;;;;;;;;;;11.99;100.00;98244.23;1688784;83;24834;-85
2022/10/03 11:33:16;;;;;;;;;;;;;;;12.01;100.00;98246.72;1687497;83;22069;-86
2022/10/03 11:35:51;;;;;;;;;;;;;;;11.98;100.00;98250.43;1683978;83;25365;-85
2022/10/03 11:38:25;;;;;;;;;;;;;;;11.97;100.00;98257.94;1661192;85;24457;-85
2022/10/03 11:40:55;;;;;;;;;;;;;;;11.96;100.00;98251.48;1687806;83;20375;-85
2022/10/03 11:43:29;;;;;;;;;;;;;;;12.00;100.00;98257.68;1685491;83;24800;-85
2022/10/03 11:46:00;;;;;;;;;;;;;;;12.06;100.00;98253.73;1678309;83;22169;-84
2022/10/03 11:48:34;;;;;;;;;;;;;;;12.08;100.00;98257.09;1678022;83;26101;-85
2022/10/03 11:51:08;;;;;;;;;;;;;;;12.11;100.00;98262.08;1682578;83;24455;-85
2022/10/03 11:53:52;;;;;;;;;;;;;;;12.17;100.00;98261.60;1685142;83;20211;-85
2022/10/03 11:56:26;;;;;;;;;;;;;;;12.29;100.00;98262.42;1684540;83;24770;-84
2022/10/03 11:59:03;;;;;;;;;;;;;;;12.32;100.00;98257.78;1684909;84;21989;-85
2022/10/03 12:01:30;;;;;;;;;;;;;;;12.37;100.00;98253.48;1684242;83;26001;-84
2022/10/03 12:03:58;;;;;;;;;;;;;;;12.45;100.00;98255.83;1685593;83;25235;-85
2022/10/03 12:09:15;;;;;;;;;;;;;;;12.50;100.00;98244.48;1683650;84;24848;-85
2022/10/03 12:11:43;;;;;;;;;;;;;;;12.52;100.00;98245.67;1685312;85;22347;-85
2022/10/03 12:14:10;;;;;;;;;;;;;;;12.53;100.00;98253.44;1684510;84;26001;-85
2022/10/03 12:16:58;;;;;;;;;;;;;;;12.49;100.00;98265.12;1679694;83;24297;-85
2022/10/03 12:19:43;;;;;;;;;;;;;;;12.36;100.00;98258.36;1667716;85;20229;-85
2022/10/03 12:22:14;;;;;;;;;;;;;;;12.26;100.00;98267.92;1666900;84;24770;-85
2022/10/03 12:24:41;;;;;;;;;;;;;;;12.13;100.00;98271.52;1663787;84;22001;-85
2022/10/03 12:27:19;;;;;;;;;;;;;;;11.98;100.00;98274.51;1668496;84;26013;-86
2022/10/03 12:29:47;;;;;;;;;;;;;;;11.88;100.00;98286.20;1669622;84;24273;-85
2022/10/03 12:32:34;;;;;;;;;;;;;;;11.82;100.00;98275.34;1672456;84;20323;-86
2022/10/03 12:35:19;;;;;;;;;;;;;;;11.81;100.00;98278.44;1674591;84;24752;-86
2022/10/03 12:37:50;;;;;;;;;;;;;;;11.82;100.00;98284.52;1671742;84;21971;-85
2022/10/03 12:40:17;;;;;;;;;;;;;;;11.82;100.00;98270.09;1669291;84;26105;-86
2022/10/03 12:42:46;;;;;;;;;;;;;;;11.91;100.00;98270.69;1668971;84;24551;-85
2022/10/03 12:45:13;;;;;;;;;;;;;;;12.00;100.00;98267.37;1671911;84;20216;-85
2022/10/03 12:47:43;;;;;;;;;;;;;;;12.05;100.00;98268.67;1671083;84;25405;-85
2022/10/03 12:50:13;;;;;;;;;;;;;;;12.08;100.00;98265.80;1673525;84;22010;-85
2022/10/03 12:52:43;;;;;;;;;;;;;;;12.05;100.00;98267.36;1672166;84;26778;-85
2022/10/03 12:55:10;;;;;;;;;;;;;;;12.07;100.00;98269.84;1670950;84;24431;-85
2022/10/03 12:57:44;;;;;;;;;;;;;;;12.11;100.00;98268.16;1641548;85;20238;-85
2022/10/03 13:00:27;;;;;;;;;;;;;;;12.11;100.00;98272.10;1667421;84;24841;-85
2022/10/03 13:02:58;;;;;;;;;;;;;;;12.15;100.00;98278.80;1666006;84;22178;-85
2022/10/03 13:05:25;;;;;;;;;;;;;;;12.09;100.00;98276.66;1668220;84;26303;-85
2022/10/03 13:07:55;;;;;;;;;;;;;;;12.02;100.00;98283.80;1667153;84;24661;-84
2022/10/03 13:10:41;;;;;;;;;;;;;;;11.96;100.00;98280.34;1672732;84;20299;-85
2022/10/03 13:13:15;;;;;;;;;;;;;;;11.91;100.00;98276.77;1667552;84;24930;-85
2022/10/03 13:16:00;;;;;;;;;;;;;;;11.94;100.00;98278.33;1667731;84;22154;-85
2022/10/03 13:18:35;;;;;;;;;;;;;;;11.90;100.00;98277.71;1665735;84;26319;-85
2022/10/03 13:21:12;;;;;;;;;;;;;;;11.90;100.00;98279.50;1666271;84;24298;-85
2022/10/03 13:23:45;;;;;;;;;;;;;;;11.94;100.00;98289.66;1665224;84;20236;-85
2022/10/03 13:26:12;;;;;;;;;;;;;;;11.94;100.00;98286.20;1669512;84;24799;-85
2022/10/03 13:28:58;;;;;;;;;;;;;;;11.97;100.00;98289.88;1672685;84;22245;-85
2022/10/03 13:31:26;;;;;;;;;;;;;;;11.99;100.00;98292.75;1667663;84;26866;-84
2022/10/03 13:33:53;;;;;;;;;;;;;;;12.03;100.00;98291.55;1667605;84;25054;-84
2022/10/03 13:36:24;;;;;;;;;;;;;;;12.12;100.00;98286.89;1669972;84;20241;-85